Time;durP1;ratioP1;P1;durP2;ratioP2;P2;SDS_P1;SDS_P2;PMS_P1;PMS_P2;Temp;Humidity;BMP_temperature;BMP_pressure;BME280_temperature;BME280_humidity;BME280_pressure;Samples;Min_cycle;Max_cycle;Signal;HPM_P1;HPM_P2
2021/09/19 00:02:02;;;;;;;17.73;15.77;;;;;;;12.84;79.79;99426.84;5029958;28;20033;-70
2021/09/19 00:04:27;;;;;;;29.85;16.30;;;;;;;12.87;79.53;99428.44;5029400;28;20041;-69
2021/09/19 00:06:53;;;;;;;21.33;14.90;;;;;;;12.88;79.05;99431.00;5030761;28;20125;-69
2021/09/19 00:09:18;;;;;;;20.92;17.77;;;;;;;12.83;78.55;99429.63;5031007;28;20083;-69
2021/09/19 00:11:44;;;;;;;21.48;17.30;;;;;;;12.75;79.65;99424.81;5029933;28;20041;-69
2021/09/19 00:14:11;;;;;;;20.15;16.75;;;;;;;12.74;79.89;99425.75;5030167;28;20034;-69
2021/09/19 00:16:37;;;;;;;20.33;15.00;;;;;;;12.72;79.50;99422.34;5030305;28;20495;-69
2021/09/19 00:19:03;;;;;;;15.63;13.63;;;;;;;12.75;79.35;99424.81;5030315;28;20037;-69
2021/09/19 00:21:28;;;;;;;14.75;13.02;;;;;;;12.75;79.07;99427.47;5029954;28;20072;-69
2021/09/19 00:23:54;;;;;;;20.52;15.82;;;;;;;12.77;79.91;99427.34;5029035;28;20505;-69
2021/09/19 00:26:19;;;;;;;22.70;17.45;;;;;;;12.75;79.76;99418.66;5030398;28;20508;-69
2021/09/19 00:28:45;;;;;;;17.90;15.73;;;;;;;12.71;79.30;99425.94;5030351;28;20041;-69
2021/09/19 00:31:10;;;;;;;21.92;16.83;;;;;;;12.66;79.80;99418.31;5029095;28;20026;-69
2021/09/19 00:33:35;;;;;;;21.38;17.48;;;;;;;12.61;80.49;99417.75;5029907;28;20029;-69
2021/09/19 00:36:01;;;;;;;20.80;17.38;;;;;;;12.60;79.77;99410.78;5029876;28;20029;-69
2021/09/19 00:38:26;;;;;;;19.10;15.90;;;;;;;12.60;79.64;99410.78;5030054;28;20034;-69
2021/09/19 00:40:51;;;;;;;22.30;15.50;;;;;;;12.55;79.82;99412.88;5029377;28;20056;-70
2021/09/19 00:43:17;;;;;;;18.25;15.13;;;;;;;12.53;80.03;99412.13;5029621;28;20044;-69
2021/09/19 00:45:42;;;;;;;20.80;16.33;;;;;;;12.54;79.58;99410.31;5028210;28;20076;-69
2021/09/19 00:48:07;;;;;;;20.27;18.05;;;;;;;12.57;79.90;99410.94;5029266;28;20562;-69
2021/09/19 00:50:33;;;;;;;23.23;17.10;;;;;;;12.57;79.49;99413.59;5029818;28;20045;-69
2021/09/19 00:52:58;;;;;;;20.50;16.92;;;;;;;12.54;79.57;99412.97;5029683;28;20191;-70
2021/09/19 00:55:24;;;;;;;18.77;16.88;;;;;;;12.51;80.16;99407.88;5029890;28;20049;-70
2021/09/19 00:57:52;;;;;;;21.02;17.35;;;;;;;12.48;79.36;99416.84;5029607;28;20036;-69
2021/09/19 01:00:28;;;;;;;21.20;17.85;;;;;;;12.45;79.65;99411.72;5029842;28;20046;-69
2021/09/19 01:02:54;;;;;;;;;;;;;;;12.43;79.58;99413.66;5012961;28;20029;-69
2021/09/19 01:05:20;;;;;;;17.30;14.27;;;;;;;12.39;79.67;99399.75;5030086;28;19920;-70
2021/09/19 01:07:47;;;;;;;20.73;16.33;;;;;;;12.38;80.08;99400.72;5029488;28;20029;-69
2021/09/19 01:10:15;;;;;;;20.58;17.10;;;;;;;12.35;79.86;99405.31;5029890;28;20033;-69
2021/09/19 01:12:41;;;;;;;22.15;18.88;;;;;;;12.30;79.97;99394.19;5029093;28;20044;-69
2021/09/19 01:15:08;;;;;;;19.20;17.15;;;;;;;12.27;79.74;99399.69;5030074;28;20029;-69
2021/09/19 01:17:36;;;;;;;20.58;18.42;;;;;;;12.24;80.01;99398.91;5028188;28;20038;-70
2021/09/19 01:20:02;;;;;;;17.13;15.23;;;;;;;12.25;79.87;99399.75;5029343;28;20109;-69
2021/09/19 01:22:33;;;;;;;15.82;14.15;;;;;;;12.21;80.19;99400.91;5028811;28;20075;-68
2021/09/19 01:25:00;;;;;;;19.90;16.83;;;;;;;12.17;79.97;99394.13;5029429;28;20053;-68
2021/09/19 01:27:26;;;;;;;18.40;16.15;;;;;;;12.14;80.44;99395.16;5029119;28;20072;-70
2021/09/19 01:29:51;;;;;;;20.83;16.52;;;;;;;12.14;79.73;99392.50;5029407;28;20072;-68
2021/09/19 01:32:21;;;;;;;19.02;16.80;;;;;;;12.10;80.61;99383.06;5028861;28;20064;-68
2021/09/19 01:34:48;;;;;;;18.52;15.90;;;;;;;12.13;80.07;99382.88;5029372;28;20121;-68
2021/09/19 01:37:13;;;;;;;16.25;14.30;;;;;;;12.18;80.23;99377.31;5028893;28;20064;-68
2021/09/19 01:39:38;;;;;;;20.08;16.23;;;;;;;12.17;79.43;99380.91;5027519;28;20493;-68
2021/09/19 01:42:04;;;;;;;19.40;16.08;;;;;;;12.08;79.80;99381.47;5029203;28;20041;-68
2021/09/19 01:44:30;;;;;;;18.15;16.17;;;;;;;12.05;80.09;99384.31;5029306;28;20050;-68
2021/09/19 01:46:56;;;;;;;20.27;16.35;;;;;;;12.00;80.48;99380.16;5029124;28;20397;-69
2021/09/19 01:49:21;;;;;;;29.98;17.65;;;;;;;11.99;79.69;99377.63;5031013;28;20041;-68
2021/09/19 01:51:47;;;;;;;19.73;16.60;;;;;;;11.96;80.48;99378.66;5031852;28;20033;-68
2021/09/19 01:54:12;;;;;;;18.52;16.33;;;;;;;11.95;80.69;99384.88;5029768;28;20029;-70
2021/09/19 01:56:38;;;;;;;20.88;17.70;;;;;;;11.92;81.01;99373.66;5028654;28;20652;-68
2021/09/19 01:59:03;;;;;;;20.25;14.65;;;;;;;11.96;80.44;99375.13;5028887;28;20377;-69
2021/09/19 02:01:30;;;;;;;19.95;17.35;;;;;;;11.91;80.27;99372.81;5027647;28;20072;-69
2021/09/19 02:03:55;;;;;;;17.73;15.82;;;;;;;11.82;80.55;99368.03;5028687;28;20421;-69
2021/09/19 02:06:22;;;;;;;14.80;12.85;;;;;;;11.83;80.99;99365.28;5028835;28;20044;-69
2021/09/19 02:08:48;;;;;;;17.65;13.57;;;;;;;11.90;80.68;99363.16;5028907;28;20049;-69
2021/09/19 02:11:14;;;;;;;15.43;12.82;;;;;;;11.91;80.44;99361.38;5027979;28;20044;-69
2021/09/19 02:13:41;;;;;;;22.27;14.57;;;;;;;11.91;79.84;99361.38;5028778;28;20489;-68
2021/09/19 02:16:07;;;;;;;24.50;16.00;;;;;;;11.85;79.94;99359.94;5027377;28;20021;-69
2021/09/19 02:18:34;;;;;;;18.67;16.52;;;;;;;11.81;80.35;99364.56;5029639;28;20037;-69
2021/09/19 02:21:02;;;;;;;21.85;14.60;;;;;;;11.80;80.16;99362.84;5032305;28;20045;-68
2021/09/19 02:23:28;;;;;;;21.80;16.42;;;;;;;11.78;80.21;99364.72;5032537;28;20037;-68
2021/09/19 02:25:53;;;;;;;20.08;16.80;;;;;;;11.76;80.19;99364.00;5032784;28;20036;-69
2021/09/19 02:28:20;;;;;;;22.13;16.60;;;;;;;11.73;80.12;99364.16;5033381;28;20037;-69
2021/09/19 02:30:46;;;;;;;15.70;13.40;;;;;;;11.72;80.82;99359.84;5032509;28;20037;-68
2021/09/19 02:33:11;;;;;;;20.15;16.23;;;;;;;11.77;81.11;99354.28;5032330;28;20540;-68
2021/09/19 02:35:37;;;;;;;15.93;13.57;;;;;;;11.79;80.61;99357.69;5032010;28;20061;-68
2021/09/19 02:38:03;;;;;;;22.55;19.38;;;;;;;11.75;80.23;99357.00;5032124;28;20079;-68
2021/09/19 02:40:28;;;;;;;19.65;16.30;;;;;;;11.69;80.58;99359.16;5032056;28;20400;-69
2021/09/19 02:42:54;;;;;;;20.58;17.00;;;;;;;11.63;80.43;99359.53;5031345;28;20037;-69
2021/09/19 02:45:21;;;;;;;17.50;15.43;;;;;;;11.62;80.94;99358.69;5032344;28;20033;-69
2021/09/19 02:47:46;;;;;;;13.57;12.18;;;;;;;11.65;80.41;99358.50;5031878;28;20392;-68
2021/09/19 02:50:16;;;;;;;15.35;13.35;;;;;;;11.63;80.30;99351.63;5032164;28;20112;-68
2021/09/19 02:52:41;;;;;;;18.48;14.98;;;;;;;11.62;80.77;99350.78;5031345;28;20045;-69
2021/09/19 02:55:07;;;;;;;14.25;12.75;;;;;;;11.66;80.78;99347.00;5031630;28;20037;-69
2021/09/19 02:57:33;;;;;;;21.38;14.05;;;;;;;11.64;80.91;99353.31;5032745;28;20444;-69
2021/09/19 02:59:58;;;;;;;19.50;13.50;;;;;;;11.66;80.58;99352.28;5032121;28;20033;-69
2021/09/19 03:02:24;;;;;;;16.95;11.18;;;;;;;11.67;80.50;99353.97;5031069;28;20042;-69
2021/09/19 03:04:49;;;;;;;13.68;12.05;;;;;;;11.68;80.29;99358.31;5030870;28;20029;-70
2021/09/19 03:07:14;;;;;;;17.52;12.70;;;;;;;11.67;80.32;99350.50;5031557;28;20086;-69
2021/09/19 03:09:39;;;;;;;17.35;14.85;;;;;;;11.64;80.37;99348.91;5032099;28;20037;-69
2021/09/19 03:12:05;;;;;;;15.30;13.00;;;;;;;11.61;80.32;99341.97;5031053;28;20036;-69
2021/09/19 03:14:31;;;;;;;19.73;12.10;;;;;;;11.57;80.75;99343.13;5031131;28;20041;-69
2021/09/19 03:16:56;;;;;;;14.32;12.60;;;;;;;11.50;80.19;99338.31;5031294;28;20053;-69
2021/09/19 03:19:22;;;;;;;16.27;13.20;;;;;;;11.46;80.37;99345.56;5031865;28;20083;-69
2021/09/19 03:21:47;;;;;;;18.17;15.05;;;;;;;11.47;80.43;99341.13;5030657;28;20033;-69
2021/09/19 03:24:12;;;;;;;15.10;11.98;;;;;;;11.47;80.24;99344.63;5029848;28;20036;-69
2021/09/19 03:26:38;;;;;;;12.73;11.25;;;;;;;11.48;80.71;99348.97;5029961;28;20034;-69
2021/09/19 03:29:03;;;;;;;14.85;12.68;;;;;;;11.49;80.10;99344.53;5030916;28;20033;-69
2021/09/19 03:31:28;;;;;;;19.35;14.32;;;;;;;11.44;80.08;99351.88;5030458;28;20033;-69
2021/09/19 03:33:54;;;;;;;13.70;11.57;;;;;;;11.43;81.19;99344.91;5031529;28;20084;-69
2021/09/19 03:36:20;;;;;;;12.73;10.85;;;;;;;11.46;80.26;99347.34;5031634;28;20030;-69
2021/09/19 03:38:45;;;;;;;15.18;13.45;;;;;;;11.45;79.99;99350.94;5031413;28;20401;-69
2021/09/19 03:41:11;;;;;;;13.05;11.07;;;;;;;11.39;80.61;99342.47;5030282;28;20033;-69
2021/09/19 03:43:36;;;;;;;11.63;9.93;;;;;;;11.40;80.24;99353.84;5031259;28;20068;-69
2021/09/19 03:46:02;;;;;;;12.50;10.40;;;;;;;11.45;80.12;99348.31;5031035;28;20043;-69
2021/09/19 03:48:27;;;;;;;12.98;10.63;;;;;;;11.46;79.71;99342.06;5031018;28;20088;-69
2021/09/19 03:50:53;;;;;;;15.02;12.43;;;;;;;11.42;79.64;99338.78;5031097;28;20437;-69
2021/09/19 03:53:18;;;;;;;15.57;12.70;;;;;;;11.41;79.95;99341.50;5030743;28;20552;-69
2021/09/19 03:55:44;;;;;;;13.07;11.50;;;;;;;11.37;80.45;99344.34;5030860;28;20065;-69
2021/09/19 03:58:09;;;;;;;12.13;10.93;;;;;;;11.37;80.61;99338.19;5030552;28;20034;-69
2021/09/19 04:00:35;;;;;;;14.45;10.32;;;;;;;11.36;80.43;99339.97;5030869;28;20401;-69
2021/09/19 04:03:00;;;;;;;14.95;11.90;;;;;;;11.37;80.37;99340.81;5028637;28;20042;-69
2021/09/19 04:05:25;;;;;;;14.40;10.68;;;;;;;11.38;80.36;99347.81;5030631;28;20567;-69
2021/09/19 04:07:51;;;;;;;14.55;10.40;;;;;;;11.37;80.58;99339.06;5031027;28;20033;-69
2021/09/19 04:10:17;;;;;;;13.38;10.88;;;;;;;11.39;80.23;99341.59;5030317;28;20469;-69
2021/09/19 04:12:43;;;;;;;13.98;10.73;;;;;;;11.36;79.97;99344.41;5029852;28;20091;-69
2021/09/19 04:15:10;;;;;;;15.88;12.43;;;;;;;11.31;80.07;99343.84;5030498;28;20037;-69
2021/09/19 04:17:35;;;;;;;14.48;12.23;;;;;;;11.31;80.28;99347.31;5030239;28;20041;-69
2021/09/19 04:20:01;;;;;;;16.48;11.77;;;;;;;11.24;79.73;99351.25;5029234;28;20040;-69
2021/09/19 04:22:26;;;;;;;16.30;11.85;;;;;;;11.16;80.16;99350.88;5029860;28;20045;-69
2021/09/19 04:24:53;;;;;;;15.35;12.73;;;;;;;11.09;80.11;99349.53;5030806;28;20034;-69
2021/09/19 04:27:18;;;;;;;13.85;10.65;;;;;;;11.06;80.31;99344.44;5030251;28;20044;-69
2021/09/19 04:29:44;;;;;;;13.57;11.02;;;;;;;11.05;80.56;99346.22;5029937;28;20065;-70
2021/09/19 04:32:09;;;;;;;14.60;11.50;;;;;;;11.02;80.48;99343.75;5029256;28;20041;-70
2021/09/19 04:34:35;;;;;;;15.55;11.40;;;;;;;11.02;80.85;99345.53;5029651;28;20053;-70
2021/09/19 04:37:00;;;;;;;13.65;10.63;;;;;;;10.99;80.82;99351.84;5030218;28;20036;-70
2021/09/19 04:39:25;;;;;;;12.60;10.90;;;;;;;10.96;80.78;99355.50;5029637;28;20041;-70
2021/09/19 04:41:51;;;;;;;11.48;9.60;;;;;;;11.01;80.86;99354.41;5028712;28;20040;-70
2021/09/19 04:44:16;;;;;;;10.88;8.23;;;;;;;11.05;80.55;99354.16;5029837;28;20557;-70
2021/09/19 04:46:42;;;;;;;11.63;7.97;;;;;;;11.06;80.46;99349.72;5028716;28;20557;-70
2021/09/19 04:49:07;;;;;;;13.18;10.43;;;;;;;11.06;80.34;99349.72;5029515;28;20113;-70
2021/09/19 04:51:32;;;;;;;12.98;8.82;;;;;;;11.08;80.54;99350.47;5028934;28;20049;-70
2021/09/19 04:53:58;;;;;;;10.45;8.68;;;;;;;11.03;80.17;99350.75;5031471;28;20037;-70
2021/09/19 04:56:23;;;;;;;12.68;10.40;;;;;;;10.96;80.71;99357.31;5031552;28;20433;-70
2021/09/19 04:58:48;;;;;;;11.15;8.77;;;;;;;10.87;80.59;99353.41;5031086;28;20041;-70
2021/09/19 05:01:14;;;;;;;11.98;9.95;;;;;;;10.84;80.86;99350.94;5026143;28;20124;-70
2021/09/19 05:03:39;;;;;;;12.38;10.95;;;;;;;10.82;80.97;99350.19;5029486;28;20040;-70
2021/09/19 05:06:05;;;;;;;11.15;7.90;;;;;;;10.89;81.29;99345.41;5030276;28;20041;-70
2021/09/19 05:08:30;;;;;;;13.88;10.85;;;;;;;10.88;80.38;99338.44;5028565;28;20064;-70
2021/09/19 05:10:56;;;;;;;12.88;10.13;;;;;;;10.85;80.30;99344.72;5029447;28;20053;-69
2021/09/19 05:13:21;;;;;;;9.13;7.63;;;;;;;10.89;80.99;99338.34;5029740;28;20037;-69
2021/09/19 05:15:46;;;;;;;10.93;8.60;;;;;;;10.92;80.33;99337.31;5029942;28;20072;-69
2021/09/19 05:18:12;;;;;;;12.40;9.60;;;;;;;10.90;80.65;99339.19;5029393;28;20037;-69
2021/09/19 05:20:37;;;;;;;13.45;8.80;;;;;;;10.88;80.54;99335.81;5028739;28;20061;-70
2021/09/19 05:23:03;;;;;;;10.30;8.20;;;;;;;10.89;80.63;99343.63;5028187;28;20061;-71
2021/09/19 05:25:29;;;;;;;15.40;9.65;;;;;;;10.84;80.54;99337.75;5028838;28;20098;-69
2021/09/19 05:27:54;;;;;;;15.82;9.77;;;;;;;10.79;80.62;99342.44;5028869;28;20045;-70
2021/09/19 05:30:21;;;;;;;10.60;8.50;;;;;;;10.77;81.29;99346.94;5029093;28;20120;-69
2021/09/19 05:32:46;;;;;;;15.43;10.02;;;;;;;10.77;81.25;99346.94;5028344;28;20061;-71
2021/09/19 05:35:12;;;;;;;7.88;7.07;;;;;;;10.81;81.30;99355.56;5028753;28;20120;-71
2021/09/19 05:37:37;;;;;;;9.93;7.90;;;;;;;10.85;80.72;99355.28;5029119;28;20562;-71
2021/09/19 05:40:04;;;;;;;11.68;7.70;;;;;;;10.88;80.87;99349.00;5029838;28;20037;-70
2021/09/19 05:42:30;;;;;;;9.98;7.68;;;;;;;10.91;81.16;99359.38;5028479;28;20065;-70
2021/09/19 05:44:55;;;;;;;7.95;6.60;;;;;;;10.94;80.66;99360.03;5028475;28;20056;-70
2021/09/19 05:47:21;;;;;;;12.40;8.68;;;;;;;10.93;80.34;99357.50;5029328;28;20087;-70
2021/09/19 05:49:46;;;;;;;14.65;8.75;;;;;;;10.93;80.62;99362.75;5028434;28;20052;-71
2021/09/19 05:52:11;;;;;;;12.85;8.68;;;;;;;10.93;80.76;99360.97;5027927;28;20113;-70
2021/09/19 05:54:37;;;;;;;8.85;7.30;;;;;;;10.98;81.43;99365.13;5028631;28;20041;-70
2021/09/19 05:57:02;;;;;;;12.45;9.70;;;;;;;11.03;81.06;99363.09;5028712;28;20121;-70
2021/09/19 05:59:28;;;;;;;10.27;7.50;;;;;;;11.07;80.88;99369.88;5028707;28;20041;-70
2021/09/19 06:01:53;;;;;;;10.73;7.65;;;;;;;11.11;80.45;99371.41;5026652;28;20034;-70
2021/09/19 06:04:19;;;;;;;9.65;7.57;;;;;;;11.14;80.56;99369.41;5028399;28;20076;-70
2021/09/19 06:06:44;;;;;;;8.48;6.50;;;;;;;11.22;80.57;99365.47;5028280;28;20052;-71
2021/09/19 06:09:09;;;;;;;8.68;7.32;;;;;;;11.26;80.05;99364.38;5028884;28;20029;-70
2021/09/19 06:11:35;;;;;;;10.60;8.45;;;;;;;11.33;80.38;99368.34;5028674;28;20103;-70
2021/09/19 06:14:00;;;;;;;11.50;8.57;;;;;;;11.35;79.89;99364.69;5028712;28;20037;-70
2021/09/19 06:16:26;;;;;;;10.48;8.40;;;;;;;11.39;80.40;99366.22;5029377;28;20551;-70
2021/09/19 06:18:51;;;;;;;8.70;7.80;;;;;;;11.48;80.06;99371.88;5033441;28;20033;-70
2021/09/19 06:21:17;;;;;;;9.13;7.47;;;;;;;11.54;80.17;99374.13;5032501;28;20095;-70
2021/09/19 06:23:42;;;;;;;8.80;7.28;;;;;;;11.60;80.36;99363.22;5032626;28;20033;-70
2021/09/19 06:26:07;;;;;;;9.00;6.57;;;;;;;11.68;79.49;99368.03;5029626;28;20067;-70
2021/09/19 06:28:33;;;;;;;11.50;7.13;;;;;;;11.75;79.54;99372.84;5029034;28;20112;-69
2021/09/19 06:30:59;;;;;;;9.85;7.47;;;;;;;11.83;79.58;99370.56;5028397;28;20040;-69
2021/09/19 06:33:26;;;;;;;8.20;5.85;;;;;;;11.96;79.62;99367.22;5029165;28;20489;-69
2021/09/19 06:35:51;;;;;;;10.45;8.95;;;;;;;12.06;79.53;99371.00;5028234;28;20178;-69
2021/09/19 06:38:17;;;;;;;10.93;8.27;;;;;;;12.15;79.39;99370.41;5028082;28;20112;-69
2021/09/19 06:40:42;;;;;;;9.18;7.88;;;;;;;12.24;79.11;99361.06;5028672;28;20026;-69
2021/09/19 06:43:08;;;;;;;9.60;7.90;;;;;;;12.35;78.66;99363.03;5027958;28;20085;-68
2021/09/19 06:45:33;;;;;;;10.02;8.13;;;;;;;12.45;78.54;99364.13;5028382;28;20034;-68
2021/09/19 06:47:58;;;;;;;10.27;7.95;;;;;;;12.59;78.83;99376.50;5028265;28;20037;-68
2021/09/19 06:50:24;;;;;;;11.10;8.35;;;;;;;12.66;77.90;99361.94;5028764;28;20037;-70
2021/09/19 06:52:49;;;;;;;14.77;8.52;;;;;;;12.75;78.31;99360.47;5027151;28;20036;-71
2021/09/19 06:55:14;;;;;;;8.68;7.00;;;;;;;12.89;78.25;99357.78;5028215;28;20048;-69
2021/09/19 06:57:40;;;;;;;13.60;7.60;;;;;;;13.01;77.61;99354.31;5027926;28;20038;-69
2021/09/19 07:00:06;;;;;;;11.55;8.60;;;;;;;13.13;77.19;99360.59;5027898;28;20044;-69
2021/09/19 07:02:32;;;;;;;9.07;7.30;;;;;;;13.30;76.92;99360.34;5027322;28;20444;-69
2021/09/19 07:04:58;;;;;;;7.93;6.38;;;;;;;13.43;76.25;99368.31;5029853;28;20033;-69
2021/09/19 07:07:24;;;;;;;10.25;6.63;;;;;;;13.61;75.77;99365.34;5031959;28;20056;-69
2021/09/19 07:09:49;;;;;;;10.13;6.60;;;;;;;13.73;75.25;99365.38;5032038;28;20037;-69
2021/09/19 07:12:15;;;;;;;8.15;6.57;;;;;;;13.88;75.09;99360.81;5031217;28;20052;-70
2021/09/19 07:14:40;;;;;;;10.13;7.13;;;;;;;14.01;74.71;99362.63;5030884;28;20493;-70
2021/09/19 07:17:05;;;;;;;6.93;5.40;;;;;;;14.09;74.95;99365.56;5032049;28;20773;-70
2021/09/19 07:19:31;;;;;;;5.75;4.60;;;;;;;14.23;74.16;99365.44;5031333;28;20044;-70
2021/09/19 07:21:56;;;;;;;5.07;4.05;;;;;;;14.39;73.49;99358.06;5030470;28;20045;-70
2021/09/19 07:24:22;;;;;;;5.07;4.53;;;;;;;14.47;73.20;99359.31;5031727;28;20119;-70
2021/09/19 07:26:47;;;;;;;7.82;5.35;;;;;;;14.60;72.05;99365.47;5031605;28;20033;-69
2021/09/19 07:29:13;;;;;;;8.10;5.85;;;;;;;14.77;72.28;99364.25;5031667;28;20388;-69
2021/09/19 07:31:38;;;;;;;5.30;4.18;;;;;;;14.93;71.17;99366.63;5030501;28;20041;-69
2021/09/19 07:34:04;;;;;;;8.40;7.38;;;;;;;15.07;70.56;99363.78;5031334;28;20432;-70
2021/09/19 07:36:33;;;;;;;7.35;4.85;;;;;;;15.19;69.86;99372.66;5031247;28;20041;-69
2021/09/19 07:39:04;;;;;;;6.85;4.05;;;;;;;15.33;70.00;99367.13;5031112;28;20033;-68
2021/09/19 07:41:30;;;;;;;5.70;4.15;;;;;;;15.52;69.20;99368.38;5029375;28;20479;-69
2021/09/19 07:43:57;;;;;;;6.13;3.88;;;;;;;15.64;68.76;99370.94;5032175;28;20041;-70
2021/09/19 07:46:22;;;;;;;5.32;3.97;;;;;;;15.75;68.31;99374.63;5031394;28;20030;-69
2021/09/19 07:48:50;;;;;;;6.35;4.40;;;;;;;15.95;67.61;99376.59;5031224;28;20034;-69
2021/09/19 07:51:15;;;;;;;5.22;3.72;;;;;;;16.13;66.70;99384.09;5031412;28;20029;-70
2021/09/19 07:53:41;;;;;;;4.45;3.60;;;;;;;16.27;66.76;99390.00;5030916;28;20049;-69
2021/09/19 07:56:06;;;;;;;5.20;4.35;;;;;;;16.37;65.71;99386.63;5032257;28;20033;-69
2021/09/19 07:58:32;;;;;;;5.70;3.95;;;;;;;16.47;65.35;99391.09;5031595;28;20084;-69
2021/09/19 08:00:57;;;;;;;7.60;3.83;;;;;;;16.43;65.37;99392.28;5030663;28;20477;-68
2021/09/19 08:03:23;;;;;;;5.20;3.10;;;;;;;16.51;65.41;99397.00;5029565;28;20485;-69
2021/09/19 08:05:48;;;;;;;3.42;2.95;;;;;;;16.66;64.98;99400.22;5030021;28;20037;-69
2021/09/19 08:08:13;;;;;;;3.88;2.53;;;;;;;16.80;64.48;99397.34;5030572;28;20095;-69
2021/09/19 08:10:39;;;;;;;3.38;2.60;;;;;;;16.91;64.81;99397.31;5028768;28;20084;-70
2021/09/19 08:13:04;;;;;;;2.85;2.47;;;;;;;17.01;64.43;99396.56;5029988;28;20052;-70
2021/09/19 08:15:29;;;;;;;4.57;3.10;;;;;;;17.11;64.11;99409.00;5030758;28;20120;-70
2021/09/19 08:17:55;;;;;;;4.28;2.50;;;;;;;17.17;63.20;99403.16;5030610;28;20064;-70
2021/09/19 08:20:21;;;;;;;3.30;2.70;;;;;;;17.25;63.18;99405.16;5029928;28;20041;-70
2021/09/19 08:22:46;;;;;;;4.05;2.70;;;;;;;17.39;62.81;99414.69;5030159;28;20037;-70
2021/09/19 08:25:13;;;;;;;3.53;2.58;;;;;;;17.48;62.33;99421.94;5030210;28;20034;-69
2021/09/19 08:27:40;;;;;;;3.22;2.15;;;;;;;17.59;61.72;99424.53;5029622;28;20509;-70
2021/09/19 08:30:08;;;;;;;6.70;2.00;;;;;;;17.53;61.71;99422.38;5030623;28;20113;-69
2021/09/19 08:32:33;;;;;;;3.08;2.33;;;;;;;17.55;61.50;99422.28;5029677;28;20029;-69
2021/09/19 08:34:58;;;;;;;2.78;2.03;;;;;;;17.75;61.71;99418.75;5030222;28;20033;-70
2021/09/19 08:37:24;;;;;;;5.35;2.20;;;;;;;17.88;60.49;99418.56;5030572;28;20478;-70
2021/09/19 08:39:49;;;;;;;3.22;2.47;;;;;;;17.97;60.27;99422.28;5029632;28;20371;-70
2021/09/19 08:42:15;;;;;;;2.03;1.77;;;;;;;17.95;60.10;99422.41;5029898;28;20085;-70
2021/09/19 08:44:40;;;;;;;18.13;14.95;;;;;;;18.12;60.28;99431.63;5029416;28;20393;-69
2021/09/19 08:47:05;;;;;;;3.45;2.55;;;;;;;18.29;58.89;99437.34;5030963;28;20056;-70
2021/09/19 08:49:31;;;;;;;1.52;1.35;;;;;;;18.47;59.02;99421.53;5031321;28;20510;-70
2021/09/19 08:51:57;;;;;;;3.72;1.77;;;;;;;18.80;57.65;99421.25;5030014;28;20033;-69
2021/09/19 08:54:23;;;;;;;3.17;1.67;;;;;;;19.25;56.49;99426.09;5029824;28;20673;-69
2021/09/19 08:56:48;;;;;;;2.45;1.70;;;;;;;19.73;54.64;99419.91;5029424;28;20112;-69
2021/09/19 08:59:13;;;;;;;5.28;1.58;;;;;;;20.23;54.22;99413.44;5029415;28;20038;-69
2021/09/19 09:02:01;;;;;;;2.28;1.50;;;;;;;21.12;51.31;99423.56;5028562;28;20038;-70
2021/09/19 09:04:27;;;;;;;2.10;1.60;;;;;;;21.97;49.24;99418.59;5029795;28;20401;-69
2021/09/19 09:06:53;;;;;;;1.85;1.50;;;;;;;22.60;47.13;99419.31;5029098;28;20477;-70
2021/09/19 09:09:19;;;;;;;1.60;1.40;;;;;;;23.00;45.59;99428.53;5029822;28;20059;-69
2021/09/19 09:12:12;;;;;;;1.63;1.52;;;;;;;23.81;44.50;99418.88;5028461;28;20460;-69
2021/09/19 09:14:47;;;;;;;3.80;1.92;;;;;;;24.50;41.85;99422.78;5028833;28;20133;-69
2021/09/19 09:17:16;;;;;;;1.90;1.77;;;;;;;25.02;40.77;99418.66;5029389;28;20059;-70
2021/09/19 09:19:43;;;;;;;1.63;1.42;;;;;;;24.92;41.44;99424.28;5028508;28;20033;-69
2021/09/19 09:22:09;;;;;;;2.55;1.70;;;;;;;25.38;39.97;99418.97;5028121;28;20042;-69
2021/09/19 09:24:37;;;;;;;1.70;1.55;;;;;;;25.68;39.31;99416.34;5029918;28;20036;-69
2021/09/19 09:27:23;;;;;;;3.42;1.92;;;;;;;26.05;38.02;99407.41;5029039;28;20396;-70
2021/09/19 09:30:06;;;;;;;2.03;1.45;;;;;;;25.99;37.86;99410.88;5028607;28;20044;-70
2021/09/19 09:33:03;;;;;;;3.30;1.50;;;;;;;26.03;38.04;99404.06;5028516;28;20057;-70
2021/09/19 09:35:40;;;;;;;2.10;1.70;;;;;;;26.08;37.64;99396.22;5029165;28;20536;-69
2021/09/19 09:38:36;;;;;;;2.05;1.70;;;;;;;26.09;37.72;99402.50;5028708;28;20037;-69
2021/09/19 09:41:03;;;;;;;1.80;1.50;;;;;;;26.44;37.39;99400.91;5067436;28;20564;-69
2021/09/19 09:43:30;;;;;;;1.25;1.15;;;;;;;27.12;35.79;99411.50;5068850;28;20033;-69
2021/09/19 09:46:07;;;;;;;2.05;1.50;;;;;;;26.71;36.10;99394.00;5068675;28;20491;-69
2021/09/19 09:48:38;;;;;;;3.75;1.90;;;;;;;26.46;36.81;99401.56;5068441;28;20029;-69
2021/09/19 09:51:17;;;;;;;3.80;1.38;;;;;;;26.04;37.31;99394.06;5068151;28;20399;-70
2021/09/19 09:53:43;;;;;;;2.20;1.60;;;;;;;25.95;37.29;99400.63;5068452;28;20488;-68
2021/09/19 09:56:09;;;;;;;3.55;1.58;;;;;;;26.80;36.07;99396.59;5067125;28;20037;-70
2021/09/19 09:58:34;;;;;;;3.75;1.50;;;;;;;26.68;35.79;99405.19;5066730;28;20029;-70
2021/09/19 10:01:01;;;;;;;1.75;1.60;;;;;;;27.17;35.19;99403.66;5064584;28;20040;-70
2021/09/19 10:03:26;;;;;;;1.50;1.40;;;;;;;27.84;33.67;99399.75;5062596;28;20040;-69
2021/09/19 10:05:52;;;;;;;4.50;1.90;;;;;;;27.29;34.60;99401.31;5065308;28;20396;-69
2021/09/19 10:08:22;;;;;;;1.92;1.33;;;;;;;26.47;35.54;99405.09;5067463;28;20440;-69
2021/09/19 10:10:47;;;;;;;1.98;1.60;;;;;;;26.28;35.44;99409.19;5067969;28;20093;-69
2021/09/19 10:13:15;;;;;;;1.58;1.40;;;;;;;25.89;35.88;99408.44;5067408;28;20451;-70
2021/09/19 10:15:42;;;;;;;1.75;1.45;;;;;;;26.21;36.09;99392.91;5068195;28;20115;-69
2021/09/19 10:18:09;;;;;;;1.50;1.40;;;;;;;27.20;35.04;99395.19;5068333;28;20056;-69
2021/09/19 10:20:40;;;;;;;1.45;1.30;;;;;;;27.72;33.85;99388.59;5069236;28;20518;-70
2021/09/19 10:23:16;;;;;;;1.40;1.20;;;;;;;27.95;33.49;99395.66;5066209;28;20086;-69
2021/09/19 10:25:56;;;;;;;3.25;1.75;;;;;;;28.40;32.71;99388.84;5063556;28;20040;-69
2021/09/19 10:28:37;;;;;;;1.80;1.30;;;;;;;28.33;31.99;99389.81;5010002;28;20449;-69
2021/09/19 10:31:09;;;;;;;2.70;1.52;;;;;;;27.80;32.86;99388.41;5012442;28;20080;-68
2021/09/19 10:33:43;;;;;;;1.30;1.20;;;;;;;27.31;33.85;99393.84;5009091;28;20034;-68
2021/09/19 10:36:11;;;;;;;1.90;1.70;;;;;;;26.57;35.86;99399.44;5008773;28;20052;-67
2021/09/19 10:38:39;;;;;;;2.50;1.77;;;;;;;25.88;36.72;99387.84;5008857;28;20034;-67
2021/09/19 10:41:17;;;;;;;2.90;1.08;;;;;;;24.97;38.40;99389.53;5012093;28;20510;-68
2021/09/19 10:44:00;;;;;;;4.40;2.10;;;;;;;24.67;38.95;99385.00;5014865;28;20069;-68
2021/09/19 10:46:35;;;;;;;2.30;1.58;;;;;;;24.39;40.15;99388.09;5012639;28;20041;-67
2021/09/19 10:49:14;;;;;;;2.30;1.85;;;;;;;23.50;41.80;99398.81;5012257;28;20091;-67
2021/09/19 10:52:01;;;;;;;4.35;1.83;;;;;;;23.25;42.59;99384.53;5014467;28;20060;-66
2021/09/19 10:54:42;;;;;;;4.97;2.00;;;;;;;23.07;42.68;99392.75;5011976;28;20079;-66
2021/09/19 10:57:34;;;;;;;1.83;1.63;;;;;;;22.74;43.78;99394.47;5011926;28;20034;-66
2021/09/19 11:00:08;;;;;;;3.42;2.03;;;;;;;22.56;44.48;99394.59;5023948;28;20033;-68
2021/09/19 11:02:38;;;;;;;1.92;1.60;;;;;;;22.46;44.82;99392.03;5008002;28;20048;-65
2021/09/19 11:05:24;;;;;;;5.65;1.92;;;;;;;22.65;44.67;99387.41;5006461;28;20486;-66
2021/09/19 11:08:08;;;;;;;2.40;1.65;;;;;;;22.69;44.21;99381.56;5017889;28;20132;-68
2021/09/19 11:10:36;;;;;;;5.40;1.40;;;;;;;22.78;44.06;99387.78;5026079;28;20044;-67
2021/09/19 11:13:25;;;;;;;3.47;1.63;;;;;;;22.48;45.02;99384.66;5025015;28;20064;-66
2021/09/19 11:16:02;;;;;;;2.55;1.90;;;;;;;22.05;46.03;99389.13;5024568;28;20064;-68
2021/09/19 11:18:52;;;;;;;3.88;1.85;;;;;;;21.64;47.48;99404.13;5025333;28;20044;-68
2021/09/19 11:21:20;;;;;;;2.90;2.15;;;;;;;21.40;47.88;99404.75;4997109;28;20076;-67
2021/09/19 11:23:47;;;;;;;4.05;2.42;;;;;;;21.43;47.60;99397.22;5005692;28;20111;-72
2021/09/19 11:26:18;;;;;;;4.68;2.22;;;;;;;21.36;47.96;99397.97;4999314;28;20528;-71
2021/09/19 11:28:46;;;;;;;2.97;1.88;;;;;;;21.12;48.42;99402.13;5021764;28;20033;-71